地図

経路データ

SID SEASON NUMBER BASIN SUBBASIN NAME ISO_TIME NATURE LAT LON WMO_WIND WMO_PRES WMO_AGENCY TRACK_TYPE DIST2LAND LANDFALL IFLAG USA_AGENCY USA_ATCF_ID USA_LAT USA_LON USA_RECORD USA_STATUS USA_WIND USA_PRES USA_SSHS USA_R34_NE USA_R34_SE USA_R34_SW USA_R34_NW USA_R50_NE USA_R50_SE USA_R50_SW USA_R50_NW USA_R64_NE USA_R64_SE USA_R64_SW USA_R64_NW USA_POCI USA_ROCI USA_RMW USA_EYE TOKYO_LAT TOKYO_LON TOKYO_GRADE TOKYO_WIND TOKYO_PRES TOKYO_R50_DIR TOKYO_R50_LONG TOKYO_R50_SHORT TOKYO_R30_DIR TOKYO_R30_LONG TOKYO_R30_SHORT TOKYO_LAND CMA_LAT CMA_LON CMA_CAT CMA_WIND CMA_PRES HKO_LAT HKO_LON HKO_CAT HKO_WIND HKO_PRES NEWDELHI_LAT NEWDELHI_LON NEWDELHI_GRADE NEWDELHI_WIND NEWDELHI_PRES NEWDELHI_CI NEWDELHI_DP NEWDELHI_POCI REUNION_LAT REUNION_LON REUNION_TYPE REUNION_WIND REUNION_PRES REUNION_TNUM REUNION_CI REUNION_RMW REUNION_R34_NE REUNION_R34_SE REUNION_R34_SW REUNION_R34_NW REUNION_R50_NE REUNION_R50_SE REUNION_R50_SW REUNION_R50_NW REUNION_R64_NE REUNION_R64_SE REUNION_R64_SW REUNION_R64_NW BOM_LAT BOM_LON BOM_TYPE BOM_WIND BOM_PRES BOM_TNUM BOM_CI BOM_RMW BOM_R34_NE BOM_R34_SE BOM_R34_SW BOM_R34_NW BOM_R50_NE BOM_R50_SE BOM_R50_SW BOM_R50_NW BOM_R64_NE BOM_R64_SE BOM_R64_SW BOM_R64_NW BOM_ROCI BOM_POCI BOM_EYE BOM_POS_METHOD BOM_PRES_METHOD NADI_LAT NADI_LON NADI_CAT NADI_WIND NADI_PRES WELLINGTON_LAT WELLINGTON_LON WELLINGTON_WIND WELLINGTON_PRES DS824_LAT DS824_LON DS824_STAGE DS824_WIND DS824_PRES TD9636_LAT TD9636_LON TD9636_STAGE TD9636_WIND TD9636_PRES TD9635_LAT TD9635_LON TD9635_WIND TD9635_PRES TD9635_ROCI NEUMANN_LAT NEUMANN_LON NEUMANN_CLASS NEUMANN_WIND NEUMANN_PRES MLC_LAT MLC_LON MLC_CLASS MLC_WIND MLC_PRES USA_GUST BOM_GUST BOM_GUST_PER REUNION_GUST REUNION_GUST_PER USA_SEAHGT USA_SEARAD_NE USA_SEARAD_SE USA_SEARAD_SW USA_SEARAD_NW STORM_SPEED STORM_DIR
1954268N29304 1954 71 NA NA NOT_NAMED 1954-09-25 06:00:00 TS 29.2000 -56.5000 25 hurdat_atl main 1519 1517 O_____________ hurdat_atl AL131954 29.2000 -56.5000 TD 25 -1 5 115
1954268N29304 1954 71 NA NA NOT_NAMED 1954-09-25 09:00:00 TS 29.1001 -56.2474 main 1529 1527 P_____________ AL131954 29.1001 -56.2474 TD 25 -1 5 115
1954268N29304 1954 71 NA NA NOT_NAMED 1954-09-25 12:00:00 TS 29.0000 -56.0000 25 hurdat_atl main 1533 1532 O_____________ hurdat_atl AL131954 29.0000 -56.0000 TD 25 -1 5 115
1954268N29304 1954 71 NA NA NOT_NAMED 1954-09-25 15:00:00 TS 28.8999 -55.7576 main 1538 1538 P_____________ AL131954 28.8999 -55.7576 TD 25 -1 5 115
1954268N29304 1954 71 NA NA NOT_NAMED 1954-09-25 18:00:00 TS 28.8000 -55.5000 25 hurdat_atl main 1550 1549 O_____________ hurdat_atl AL131954 28.8000 -55.5000 TD 25 -1 5 113
1954268N29304 1954 71 NA NA NOT_NAMED 1954-09-25 21:00:00 TS 28.7000 -55.2075 main 1562 1562 P_____________ AL131954 28.7000 -55.2075 TD 27 -1 6 111
1954268N29304 1954 71 NA NA NOT_NAMED 1954-09-26 00:00:00 TS 28.6000 -54.9000 30 hurdat_atl main 1575 1575 O_____________ hurdat_atl AL131954 28.6000 -54.9000 TD 30 -1 6 113
1954268N29304 1954 71 NA NA NOT_NAMED 1954-09-26 03:00:00 TS 28.4774 -54.5999 main 1589 1589 P_____________ AL131954 28.4774 -54.5999 TD 30 -1 6 111
1954268N29304 1954 71 NA NA NOT_NAMED 1954-09-26 06:00:00 TS 28.4000 -54.3000 30 hurdat_atl main 1603 1603 O_____________ hurdat_atl AL131954 28.4000 -54.3000 TD 30 -1 5 96
1954268N29304 1954 71 NA NA NOT_NAMED 1954-09-26 09:00:00 TS 28.4199 -54.0076 main 1625 1625 P_____________ AL131954 28.4199 -54.0076 TD 30 -1 5 79
1954268N29304 1954 71 NA NA NOT_NAMED 1954-09-26 12:00:00 TS 28.5000 -53.7000 30 hurdat_atl main 1655 1655 O_____________ hurdat_atl AL131954 28.5000 -53.7000 TD 30 -1 6 75
1954268N29304 1954 71 NA NA NOT_NAMED 1954-09-26 15:00:00 TS 28.5775 -53.3574 main 1684 1684 P_____________ AL131954 28.5775 -53.3574 TD 30 -1 6 72
1954268N29304 1954 71 NA NA NOT_NAMED 1954-09-26 18:00:00 TS 28.7000 -53.0000 30 hurdat_atl main 1721 1721 O_____________ hurdat_atl AL131954 28.7000 -53.0000 TD 30 -1 7 64
1954268N29304 1954 71 NA NA NOT_NAMED 1954-09-26 21:00:00 TS 28.8774 -52.6499 main 1766 1766 P_____________ AL131954 28.8774 -52.6499 TD 30 -1 7 57
1954268N29304 1954 71 NA NA NOT_NAMED 1954-09-27 00:00:00 TS 29.1000 -52.3000 30 hurdat_atl main 1802 1802 O_____________ hurdat_atl AL131954 29.1000 -52.3000 TD 30 -1 8 52
1954268N29304 1954 71 NA NA NOT_NAMED 1954-09-27 03:00:00 TS 29.3650 -51.9427 main 1854 1854 P_____________ AL131954 29.3650 -51.9427 TD 30 -1 8 51
1954268N29304 1954 71 NA NA NOT_NAMED 1954-09-27 06:00:00 TS 29.6000 -51.6000 30 hurdat_atl main 1890 1887 O_____________ hurdat_atl AL131954 29.6000 -51.6000 TD 30 -1 7 58
1954268N29304 1954 71 NA NA NOT_NAMED 1954-09-27 09:00:00 TS 29.7300 -51.2698 main 1888 1878 P_____________ AL131954 29.7300 -51.2698 TD 30 -1 6 69
1954268N29304 1954 71 NA NA NOT_NAMED 1954-09-27 12:00:00 TS 29.8000 -51.0000 30 hurdat_atl main 1880 1869 O_____________ hurdat_atl AL131954 29.8000 -51.0000 TD 30 -1 4 71
1954268N29304 1954 71 NA NA NOT_NAMED 1954-09-27 15:00:00 TS 29.8649 -50.8274 main 1870 1870 P_____________ AL131954 29.8649 -50.8274 TD 30 -1 3 69
1954268N29304 1954 71 NA NA NOT_NAMED 1954-09-27 18:00:00 TS 29.9000 -50.7000 30 hurdat_atl main 1871 1871 O_____________ hurdat_atl AL131954 29.9000 -50.7000 TD 30 -1 3 80
1954268N29304 1954 71 NA NA NOT_NAMED 1954-09-27 21:00:00 TS 29.9075 -50.5425 main 1873 1873 P_____________ AL131954 29.9075 -50.5425 TD 30 -1 3 90
1954268N29304 1954 71 NA NA NOT_NAMED 1954-09-28 00:00:00 TS 29.9000 -50.4000 30 hurdat_atl main 1875 1875 O_____________ hurdat_atl AL131954 29.9000 -50.4000 TD 30 -1 2 92
1954268N29304 1954 71 NA NA NOT_NAMED 1954-09-28 03:00:00 TS 29.9000 -50.2925 main 1876 1876 P_____________ AL131954 29.9000 -50.2925 TD 30 -1 2 90
1954268N29304 1954 71 NA NA NOT_NAMED 1954-09-28 06:00:00 TS 29.9000 -50.2000 30 hurdat_atl main 1877 1877 O_____________ hurdat_atl AL131954 29.9000 -50.2000 TD 30 -1 2 90
1954268N29304 1954 71 NA NA NOT_NAMED 1954-09-28 09:00:00 TS 29.9000 -50.1075 main 1878 1878 P_____________ AL131954 29.9000 -50.1075 TD 30 -1 2 90
1954268N29304 1954 71 NA NA NOT_NAMED 1954-09-28 12:00:00 TS 29.9000 -50.0000 30 hurdat_atl main 1879 1879 O_____________ hurdat_atl AL131954 29.9000 -50.0000 TD 30 -1 2 90
1954268N29304 1954 71 NA NA NOT_NAMED 1954-09-28 15:00:00 TS 29.9000 -49.8575 main 1881 1881 P_____________ AL131954 29.9000 -49.8575 TD 30 -1 3 90
1954268N29304 1954 71 NA NA NOT_NAMED 1954-09-28 18:00:00 TS 29.9000 -49.7000 30 hurdat_atl main 1883 1883 O_____________ hurdat_atl AL131954 29.9000 -49.7000 TD 30 -1 3 90
1954268N29304 1954 71 NA NA NOT_NAMED 1954-09-28 21:00:00 TS 29.9000 -49.5500 main 1886 1885 P_____________ AL131954 29.9000 -49.5500 TD 30 -1 3 90
1954268N29304 1954 71 NA NA NOT_NAMED 1954-09-29 00:00:00 TS 29.9000 -49.4000 30 hurdat_atl main 1888 1888 O_____________ hurdat_atl AL131954 29.9000 -49.4000 TD 30 -1 3 92
1954268N29304 1954 71 NA NA NOT_NAMED 1954-09-29 03:00:00 TS 29.8925 -49.2575 main 1889 1889 P_____________ AL131954 29.8925 -49.2575 TD 30 -1 3 90
1954268N29304 1954 71 NA NA NOT_NAMED 1954-09-29 06:00:00 TS 29.9000 -49.1000 30 hurdat_atl main 1892 1892 O_____________ hurdat_atl AL131954 29.9000 -49.1000 TD 30 -1 3 82
1954268N29304 1954 71 NA NA NOT_NAMED 1954-09-29 09:00:00 TS 29.9351 -48.8850 main 1896 1886 P_____________ AL131954 29.9351 -48.8850 TD 30 -1 4 74
1954268N29304 1954 71 NA NA NOT_NAMED 1954-09-29 12:00:00 TS 30.0000 -48.7000 30 hurdat_atl main 1888 1879 O_____________ hurdat_atl AL131954 30.0000 -48.7000 TD 30 -1 3 58
1954268N29304 1954 71 NA NA NOT_NAMED 1954-09-29 15:00:00 TS 30.0774 -48.6200 main 1879 1868 P_____________ AL131954 30.0774 -48.6200 TD 32 -1 2 25
1954268N29304 1954 71 NA NA NOT_NAMED 1954-09-29 18:00:00 TS 30.2000 -48.6000 35 hurdat_atl main 1868 1846 O_____________ hurdat_atl AL131954 30.2000 -48.6000 TS 35 0 3 6
1954268N29304 1954 71 NA NA NOT_NAMED 1954-09-29 21:00:00 TS 30.3850 -48.5776 main 1846 1824 P_____________ AL131954 30.3850 -48.5776 TS 37 0 4 0
1954268N29304 1954 71 NA NA NOT_NAMED 1954-09-30 00:00:00 TS 30.6000 -48.6000 40 hurdat_atl main 1824 1800 O_____________ hurdat_atl AL131954 30.6000 -48.6000 TS 40 0 4 349
1954268N29304 1954 71 NA NA NOT_NAMED 1954-09-30 03:00:00 TS 30.8150 -48.6849 main 1800 1777 P_____________ AL131954 30.8150 -48.6849 TS 42 0 4 337
1954268N29304 1954 71 NA NA NOT_NAMED 1954-09-30 06:00:00 TS 31.0000 -48.8000 45 hurdat_atl main 1777 1764 O_____________ hurdat_atl AL131954 31.0000 -48.8000 TS 45 0 3 332
1954268N29304 1954 71 NA NA NOT_NAMED 1954-09-30 09:00:00 TS 31.1224 -48.8776 main 1764 1751 P_____________ AL131954 31.1224 -48.8776 TS 45 0 3 319
1954268N29304 1954 71 NA NA NOT_NAMED 1954-09-30 12:00:00 TS 31.2000 -49.0000 45 hurdat_atl main 1751 1737 O_____________ hurdat_atl AL131954 31.2000 -49.0000 TS 45 0 3 296
1954268N29304 1954 71 NA NA NOT_NAMED 1954-09-30 15:00:00 TS 31.2574 -49.2051 main 1737 1732 P_____________ AL131954 31.2574 -49.2051 TS 45 0 4 283
1954268N29304 1954 71 NA NA NOT_NAMED 1954-09-30 18:00:00 TS 31.3000 -49.5000 45 hurdat_atl main 1732 1727 O_____________ hurdat_atl AL131954 31.3000 -49.5000 TS 45 0 6 279
1954268N29304 1954 71 NA NA NOT_NAMED 1954-09-30 21:00:00 TS 31.3500 -49.8700 main 1726 1710 P_____________ AL131954 31.3500 -49.8700 TS 47 0 7 278
1954268N29304 1954 71 NA NA NOT_NAMED 1954-10-01 00:00:00 TS 31.4000 -50.3000 50 hurdat_atl main 1710 1694 O_____________ hurdat_atl AL131954 31.4000 -50.3000 TS 50 0 8 278
1954268N29304 1954 71 NA NA NOT_NAMED 1954-10-01 03:00:00 TS 31.4575 -50.7499 main 1694 1689 P_____________ AL131954 31.4575 -50.7499 TS 52 0 8 277
1954268N29304 1954 71 NA NA NOT_NAMED 1954-10-01 06:00:00 TS 31.5000 -51.2000 55 hurdat_atl main 1689 1686 O_____________ hurdat_atl AL131954 31.5000 -51.2000 TS 55 0 7 274
1954268N29304 1954 71 NA NA NOT_NAMED 1954-10-01 09:00:00 TS 31.5148 -51.6075 main 1686 1684 P_____________ AL131954 31.5148 -51.6075 TS 57 0 7 270
1954268N29304 1954 71 NA NA NOT_NAMED 1954-10-01 12:00:00 TS 31.5000 -52.0000 60 hurdat_atl main 1684 1682 O_____________ hurdat_atl AL131954 31.5000 -52.0000 TS 60 0 7 266
1954268N29304 1954 71 NA NA NOT_NAMED 1954-10-01 15:00:00 TS 31.4724 -52.4074 main 1682 1681 P_____________ AL131954 31.4724 -52.4074 TS 62 0 7 262
1954268N29304 1954 71 NA NA NOT_NAMED 1954-10-01 18:00:00 TS 31.4000 -52.8000 65 hurdat_atl main 1692 1688 O_____________ hurdat_atl AL131954 31.4000 -52.8000 HU 65 1 7 253
1954268N29304 1954 71 NA NA NOT_NAMED 1954-10-01 21:00:00 TS 31.2724 -53.1650 main 1691 1691 P_____________ AL131954 31.2724 -53.1650 HU 65 1 7 243
1954268N29304 1954 71 NA NA NOT_NAMED 1954-10-02 00:00:00 TS 31.1000 -53.5000 65 hurdat_atl main 1702 1698 O_____________ hurdat_atl AL131954 31.1000 -53.5000 HU 65 1 7 236
1954268N29304 1954 71 NA NA NOT_NAMED 1954-10-02 03:00:00 TS 30.8999 -53.8075 main 1713 1710 P_____________ AL131954 30.8999 -53.8075 HU 67 1 7 232
1954268N29304 1954 71 NA NA NOT_NAMED 1954-10-02 06:00:00 TS 30.7000 -54.1000 70 hurdat_atl main 1725 1722 O_____________ hurdat_atl AL131954 30.7000 -54.1000 HU 70 1 6 233
1954268N29304 1954 71 NA NA NOT_NAMED 1954-10-02 09:00:00 TS 30.5125 -54.4076 main 1736 1732 P_____________ AL131954 30.5125 -54.4076 HU 70 1 6 240
1954268N29304 1954 71 NA NA NOT_NAMED 1954-10-02 12:00:00 TS 30.4000 -54.7000 70 hurdat_atl main 1732 1715 O_____________ hurdat_atl AL131954 30.4000 -54.7000 HU 70 1 5 258
1954268N29304 1954 71 NA NA NOT_NAMED 1954-10-02 15:00:00 TS 30.4124 -54.9648 main 1715 1699 P_____________ AL131954 30.4124 -54.9648 HU 72 1 4 283
1954268N29304 1954 71 NA NA NOT_NAMED 1954-10-02 18:00:00 TS 30.5000 -55.2000 75 hurdat_atl main 1699 1680 O_____________ hurdat_atl AL131954 30.5000 -55.2000 HU 75 1 4 293
1954268N29304 1954 71 NA NA NOT_NAMED 1954-10-02 21:00:00 TS 30.5775 -55.4151 main 1680 1661 P_____________ AL131954 30.5775 -55.4151 HU 75 1 4 300
1954268N29304 1954 71 NA NA NOT_NAMED 1954-10-03 00:00:00 TS 30.7000 -55.6000 75 hurdat_atl main 1661 1632 O_____________ hurdat_atl AL131954 30.7000 -55.6000 HU 75 1 4 315
1954268N29304 1954 71 NA NA NOT_NAMED 1954-10-03 03:00:00 TS 30.8850 -55.7724 main 1632 1608 P_____________ AL131954 30.8850 -55.7724 HU 75 1 5 327
1954268N29304 1954 71 NA NA NOT_NAMED 1954-10-03 06:00:00 TS 31.1000 -55.9000 75 hurdat_atl main 1608 1584 O_____________ hurdat_atl AL131954 31.1000 -55.9000 HU 75 1 5 336
1954268N29304 1954 71 NA NA NOT_NAMED 1954-10-03 09:00:00 TS 31.3074 -55.9949 main 1584 1564 P_____________ AL131954 31.3074 -55.9949 HU 75 1 4 348
1954268N29304 1954 71 NA NA NOT_NAMED 1954-10-03 12:00:00 TS 31.5000 -56.0000 75 hurdat_atl main 1564 1554 O_____________ hurdat_atl AL131954 31.5000 -56.0000 HU 75 1 4 12
1954268N29304 1954 71 NA NA NOT_NAMED 1954-10-03 15:00:00 TS 31.6574 -55.9025 main 1549 1544 P_____________ AL131954 31.6574 -55.9025 HU 75 1 4 40
1954268N29304 1954 71 NA NA NOT_NAMED 1954-10-03 18:00:00 TS 31.8000 -55.7000 75 hurdat_atl main 1549 1544 O_____________ hurdat_atl AL131954 31.8000 -55.7000 HU 75 1 5 54
1954268N29304 1954 71 NA NA NOT_NAMED 1954-10-03 21:00:00 TS 31.9424 -55.4448 main 1554 1544 P_____________ AL131954 31.9424 -55.4448 HU 75 1 6 59
1954268N29304 1954 71 NA NA NOT_NAMED 1954-10-04 00:00:00 TS 32.1000 -55.1000 75 hurdat_atl main 1547 1534 O_____________ hurdat_atl AL131954 32.1000 -55.1000 HU 75 1 7 62
1954268N29304 1954 71 NA NA NOT_NAMED 1954-10-04 03:00:00 TS 32.2848 -54.6947 main 1537 1529 P_____________ AL131954 32.2848 -54.6947 HU 77 1 9 62
1954268N29304 1954 71 NA NA NOT_NAMED 1954-10-04 06:00:00 TS 32.5000 -54.2000 80 hurdat_atl main 1532 1525 O_____________ hurdat_atl AL131954 32.5000 -54.2000 HU 80 1 10 63
1954268N29304 1954 71 NA NA NOT_NAMED 1954-10-04 09:00:00 TS 32.7349 -53.6297 main 1532 1513 P_____________ AL131954 32.7349 -53.6297 HU 80 1 11 64
1954268N29304 1954 71 NA NA NOT_NAMED 1954-10-04 12:00:00 TS 33.0000 -53.0000 80 hurdat_atl main 1513 1481 O_____________ hurdat_atl AL131954 33.0000 -53.0000 HU 80 1 12 63
1954268N29304 1954 71 NA NA NOT_NAMED 1954-10-04 15:00:00 TS 33.2847 -52.3645 main 1481 1451 P_____________ AL131954 33.2847 -52.3645 HU 80 1 12 61
1954268N29304 1954 71 NA NA NOT_NAMED 1954-10-04 18:00:00 TS 33.6000 -51.7000 80 hurdat_atl main 1452 1423 O_____________ hurdat_atl AL131954 33.6000 -51.7000 HU 80 1 13 60
1954268N29304 1954 71 NA NA NOT_NAMED 1954-10-04 21:00:00 TS 33.9347 -51.0070 main 1425 1388 P_____________ AL131954 33.9347 -51.0070 HU 80 1 14 59
1954268N29304 1954 71 NA NA NOT_NAMED 1954-10-05 00:00:00 TS 34.3000 -50.3000 80 hurdat_atl main 1390 1357 O_____________ hurdat_atl AL131954 34.3000 -50.3000 HU 80 1 14 57
1954268N29304 1954 71 NA NA NOT_NAMED 1954-10-05 03:00:00 TS 34.6846 -49.5993 main 1357 1326 P_____________ AL131954 34.6846 -49.5993 HU 82 1 14 55
1954268N29304 1954 71 NA NA NOT_NAMED 1954-10-05 06:00:00 TS 35.1000 -48.9000 85 hurdat_atl main 1328 1297 O_____________ hurdat_atl AL131954 35.1000 -48.9000 HU 85 2 14 52
1954268N29304 1954 71 NA NA NOT_NAMED 1954-10-05 09:00:00 TS 35.5334 -48.2580 main 1300 1270 P_____________ AL131954 35.5334 -48.2580 HU 85 2 15 52
1954268N29304 1954 71 NA NA NOT_NAMED 1954-10-05 12:00:00 TS 36.0000 -47.5000 85 hurdat_atl main 1270 1251 O_____________ hurdat_atl AL131954 36.0000 -47.5000 HU 85 2 17 56
1954268N29304 1954 71 NA NA NOT_NAMED 1954-10-05 15:00:00 TS 36.4753 -46.5396 main 1252 1243 P_____________ AL131954 36.4753 -46.5396 HU 85 2 20 61
1954268N29304 1954 71 NA NA NOT_NAMED 1954-10-05 18:00:00 TS 37.0000 -45.3000 85 hurdat_atl main 1250 1248 O_____________ hurdat_atl AL131954 37.0000 -45.3000 HU 85 2 24 65
1954268N29304 1954 71 NA NA NOT_NAMED 1954-10-05 21:00:00 TS 37.5012 -43.7766 main 1271 1271 P_____________ AL131954 37.5012 -43.7766 HU 82 1 29 65
1954268N29304 1954 71 NA NA NOT_NAMED 1954-10-06 00:00:00 TS 38.2000 -42.0000 80 hurdat_atl main 1306 1306 O_____________ hurdat_atl AL131954 38.2000 -42.0000 HU 80 1 34 60
1954268N29304 1954 71 NA NA NOT_NAMED 1954-10-06 03:00:00 TS 39.1792 -40.0110 main 1347 1347 P_____________ AL131954 39.1792 -40.0110 HU 77 1 39 53
1954268N29304 1954 71 NA NA NOT_NAMED 1954-10-06 06:00:00 TS 40.5000 -38.0000 75 hurdat_atl main 1388 1388 O_____________ hurdat_atl AL131954 40.5000 -38.0000 HU 75 1 41 46
1954268N29304 1954 71 NA NA NOT_NAMED 1954-10-06 09:00:00 TS 42.0462 -36.1512 main 1423 1423 P_____________ AL131954 42.0462 -36.1512 HU 72 1 44 37
1954268N29304 1954 71 NA NA NOT_NAMED 1954-10-06 12:00:00 TS 44.0000 -34.5000 70 hurdat_atl main 1447 1447 O_____________ hurdat_atl AL131954 44.0000 -34.5000 HU 70 1 49 27
1954268N29304 1954 71 NA NA NOT_NAMED 1954-10-06 15:00:00 TS 46.3699 -33.0298 main 1482 1433 P_____________ AL131954 46.3699 -33.0298 HU 67 1 54 21
1954268N29304 1954 71 NA NA NOT_NAMED 1954-10-06 18:00:00 ET 49.0000 -31.7000 65 hurdat_atl main 1426 1229 O_____________ hurdat_atl AL131954 49.0000 -31.7000 EX 65 -4 55 18
1954268N29304 1954 71 NA NA NOT_NAMED 1954-10-06 21:00:00 ET 51.6200 -30.3883 main 1223 1067 P_____________ AL131954 51.6200 -30.3883 EX 62 -4 55 18
1954268N29304 1954 71 NA NA NOT_NAMED 1954-10-07 00:00:00 ET 54.2000 -29.0000 60 hurdat_atl main 1064 O_____________ hurdat_atl AL131954 54.2000 -29.0000 EX 60 -4 54 17

IBTrACS Databaseについて

本データベースは、米国NOAAが公開する1842年以降の世界の熱帯低気圧のベストトラックデータアーカイブInternational Best Track Archive for Climate Stewardship (IBTrACS)を、ウェブで閲覧しやすい形式に変換したものです。

最終更新日:2021-12-03